Relevés horaires Matro (Suisse)


Relevés horaires à Matro - Jeudi 26 Mars 2026
Heure UTC1 Température [°C] Vent [km/h] Hum. [%] Pres.4 [hPa] Visi. [Km] Nébu. [octa] Préc.5 [mm] Cond.
2m. Res. Ros. Dir.2 Vit. Moy. Raf.3
23:00 -9.1 -21.9 -18.1 NNO 66.7 -- 92.6 48 850(-0.1/3h) -- -- -- --
22:00 -9.5 -22.9 -14.1 NNO 74.1 -- 96.3 69 850(0.2/3h) -- -- -- --
21:00 -9.0 -22 -16.7 NNO 70.4 -- 98.2 53 850(0.4/3h) -- -- -- --
20:00 -9.5 -21.7 -12.6 NNO 57.4 -- 88.9 78 850(0.8/3h) -- -- -- --
19:00 -9.3 -21.7 -10.4 NNO 61.1 -- 88.9 92 850(1.4/3h) -- -- -- --
18:00 -8.5 -21 -15.8 NNO 66.7 -- 96.3 55 850(0.9/3h) -- -- -- --
17:00 -8.4 -19.6 -14.6 NNO 50.0 -- 77.8 61 850(1.0/3h) -- -- -- --
16:00 -8.2 -19.5 -8.2 NNO 51.9 -- 81.5 100 850(0.7/3h) -- -- -- --
15:00 -8.0 -19 -15.4 NNO 50.0 -- 96.3 55 850(1.0/3h) -- -- -- --
14:00 -8.1 -19.8 -14.8 NNO 57.4 -- 87.0 58 850(0.9/3h) -- -- -- --
13:00 -7.9 -19.4 -17.0 NNO 55.6 -- 96.3 48 850(0.8/3h) -- -- -- --
12:00 -7.8 -18.8 -17.1 NNO 50.0 -- 101.9 47 850(1.3/3h) -- -- -- --
11:00 -8.0 -19.2 -8.0 NNO 51.9 -- 96.3 100 850(1.9/3h) -- -- -- --
10:00 -8.5 -20.6 -8.5 NNO 61.1 -- 100.0 100 850 -- -- -- --
09:00 -8.0 -19.7 -13.0 NNO 57.4 -- 101.9 67 850(1.9/3h) -- -- -- --
08:00 -8.3 -20.2 -13.7 NNO 59.3 -- 98.2 65 850(1.7/3h) -- -- -- --
07:00 -8.1 -20.1 -13.2 NNO 61.1 -- 88.9 67 850(1.0/3h) -- -- -- --
06:00 -7.9 -19.1 -13.4 NNO 51.9 -- 96.3 64 850(0.7/3h) -- -- -- --
05:00 -7.9 -19.4 -9.8 NNO 55.6 -- 96.3 86 850(0.3/3h) -- -- -- --
04:00 -7.7 -18.6 -13.2 NNO 50.0 -- 87.0 65 850(-0.1/3h) -- -- -- --
03:00 -7.5 -18 -13.4 NNO 46.3 -- 83.3 63 850(-0.7/3h) -- -- -- --
02:00 -7.7 -18.6 -12.2 NNO 50.0 -- 83.3 70 850(-1.3/3h) -- -- -- --
01:00 -7.5 -18.7 -13.1 NNO 53.7 -- 79.6 64 850(-1.3/3h) -- -- -- --
00:00 -7.9 -18.9 -11.5 NNO 50.0 -- 87.0 75 850(-1.6/3h) -- -- -- --

1 Coordinated Universal Time. Actuellement il est 03:00 locale et 01:00 UTC.

2 Le vent souffle depuis la direction indiquée vers la direction oposée.

3 Les rafales max. sont disponible 40 min après l'heure du relevé.

4 Pour les stations d'altitude (plus de 600m) le géopotentiel du niveau le plus proche de la pression obligatoire est indiqué.

5 Les stations disposant d'un diffuseur peuvent indiquer "trace". Cela signifie que des précipitations ont touchés le sol mais que la quantité est inférieure à 0.1 mm.

Copyright

Les données affichées sur cette page sont la propriété exclusive de Météo Suisse.

Récapitulatif de la journée
Température [°C] Vent [km/h] Ensoleillement4 [h] Precipitations totale5 [mm] Pression [Hpa]
Min1 Max.2 Moy.3 Max. Min Max.
-8.4 -7.6 0 101.9 6 h 24 min 0 850.0 850.0

1 Température minimale relevée entre 18:00 UTC la veille et 18:00 UTC le jour donné.

2 Température maximale relevée entre 06:00 UTC le jour donné et 06:00 UTC le lendemain.

3 Vent moyen de la journée basé sur les relevés horaires.

4 Ensoleillement en heures relevé entre 06:00 UTC la veille et 06:00 UTC le jour donné.

5 Précipitations totales tombées entre 06:00 UTC la jour donné et 06:00 UTC le lendemain.

Graphiques horaires